createdAt,value
2023-03-25T00:00:42.197Z,5.60
2023-03-25T00:01:42.145Z,3.60
2023-03-25T00:02:42.247Z,6.90
2023-03-25T00:03:42.125Z,5.90
2023-03-25T00:04:42.139Z,4.60
2023-03-25T00:05:42.096Z,3.90
2023-03-25T00:06:42.101Z,4.40
2023-03-25T00:07:42.092Z,5.00
2023-03-25T00:08:42.085Z,6.10
2023-03-25T00:09:42.049Z,5.40
2023-03-25T00:10:42.039Z,5.20
2023-03-25T00:11:42.029Z,5.00
2023-03-25T00:12:42.053Z,3.80
2023-03-25T00:13:42.006Z,4.50
2023-03-25T00:14:42.014Z,6.40
2023-03-25T00:15:41.993Z,5.20
2023-03-25T00:16:42.056Z,5.00
2023-03-25T00:17:42.007Z,5.40
2023-03-25T00:18:41.985Z,5.10
2023-03-25T00:19:41.937Z,5.70
2023-03-25T00:20:41.930Z,3.80
2023-03-25T00:21:41.929Z,4.50
2023-03-25T00:22:42.039Z,4.30
2023-03-25T00:23:41.897Z,4.20
2023-03-25T00:24:41.902Z,6.10
2023-03-25T00:25:41.875Z,4.70
2023-03-25T00:26:41.864Z,6.70
2023-03-25T00:27:41.882Z,5.30
2023-03-25T00:28:41.842Z,6.00
2023-03-25T00:29:41.823Z,4.40
2023-03-25T00:30:41.846Z,4.40
2023-03-25T00:31:41.803Z,5.00
2023-03-25T00:32:41.837Z,5.80
2023-03-25T00:33:41.898Z,5.80
2023-03-25T00:34:41.780Z,4.60
2023-03-25T00:35:41.767Z,7.30
2023-03-25T00:36:41.749Z,4.00
2023-03-25T00:37:41.759Z,6.40
2023-03-25T00:38:41.736Z,6.00
2023-03-25T00:39:41.712Z,6.40
2023-03-25T00:40:41.720Z,5.10
2023-03-25T00:41:41.687Z,6.90
2023-03-25T00:42:41.697Z,6.60
2023-03-25T00:43:41.672Z,6.30
2023-03-25T00:44:41.660Z,4.90
2023-03-25T00:45:41.640Z,6.00
2023-03-25T00:46:41.705Z,5.80
2023-03-25T00:47:41.717Z,5.70
2023-03-25T00:48:41.610Z,4.50
2023-03-25T00:49:41.601Z,8.80
2023-03-25T00:50:41.589Z,5.10
2023-03-25T00:51:52.400Z,6.70
2023-03-25T00:52:41.608Z,5.40
2023-03-25T00:53:41.559Z,6.10
2023-03-25T00:54:41.596Z,4.40
2023-03-25T00:55:41.975Z,6.60
2023-03-25T00:56:41.988Z,6.80
2023-03-25T00:57:42.391Z,6.00
2023-03-25T00:58:41.499Z,7.50
2023-03-25T00:59:41.910Z,6.00
2023-03-25T01:00:41.471Z,6.00
2023-03-25T01:01:41.475Z,5.70
2023-03-25T01:02:41.513Z,5.20
2023-03-25T01:03:41.503Z,5.50
2023-03-25T01:04:43.102Z,6.70
2023-03-25T01:05:41.423Z,6.60
2023-03-25T01:06:41.416Z,6.30
2023-03-25T01:07:41.413Z,6.70
2023-03-25T01:08:41.382Z,5.90
2023-03-25T01:09:41.382Z,5.60
2023-03-25T01:10:41.366Z,7.40
2023-03-25T01:11:41.346Z,7.70
2023-03-25T01:12:41.363Z,6.70
2023-03-25T01:13:41.318Z,6.80
2023-03-25T01:14:41.315Z,5.70
2023-03-25T01:15:41.377Z,7.40
2023-03-25T01:16:41.315Z,6.80
2023-03-25T01:17:41.310Z,7.50
2023-03-25T01:18:41.274Z,5.60
2023-03-25T01:19:41.264Z,7.50
2023-03-25T01:20:41.244Z,7.50
2023-03-25T01:21:41.233Z,5.50
2023-03-25T01:22:41.245Z,7.20
2023-03-25T01:23:41.208Z,7.50
2023-03-25T01:24:41.199Z,6.00
2023-03-25T01:25:41.184Z,7.90
2023-03-25T01:26:41.210Z,6.90
2023-03-25T01:27:41.204Z,6.00
2023-03-25T01:28:41.163Z,7.10
2023-03-25T01:29:41.154Z,5.90
2023-03-25T01:30:41.132Z,8.70
2023-03-25T01:31:41.262Z,6.00
2023-03-25T01:32:41.161Z,6.60
2023-03-25T01:33:41.104Z,9.60
2023-03-25T01:34:41.100Z,5.00
2023-03-25T01:35:41.077Z,7.50
2023-03-25T01:36:41.062Z,7.10
2023-03-25T01:37:41.070Z,8.40
2023-03-25T01:38:41.040Z,7.90
2023-03-25T01:39:41.027Z,8.60
2023-03-25T01:40:41.026Z,6.60
2023-03-25T01:41:49.063Z,6.70
2023-03-25T01:42:41.034Z,6.40
2023-03-25T01:43:40.980Z,10.90
2023-03-25T01:44:40.976Z,8.90
2023-03-25T01:45:40.963Z,7.20
2023-03-25T01:46:40.999Z,11.60
2023-03-25T01:47:40.986Z,8.80
2023-03-25T01:48:40.937Z,7.00
2023-03-25T01:49:40.923Z,6.50
2023-03-25T01:50:40.898Z,7.30
2023-03-25T01:51:40.892Z,7.90
2023-03-25T01:52:40.908Z,9.10
2023-03-25T01:53:40.864Z,8.60
2023-03-25T01:54:40.866Z,8.90
2023-03-25T01:55:40.846Z,7.60
2023-03-25T01:56:40.848Z,8.50
2023-03-25T01:57:40.844Z,9.10
2023-03-25T01:58:40.816Z,13.10
2023-03-25T01:59:40.806Z,8.80
2023-03-25T02:00:40.824Z,7.60
2023-03-25T02:01:40.782Z,10.00
2023-03-25T02:02:40.839Z,11.80
2023-03-25T02:03:40.785Z,10.40
2023-03-25T02:04:40.756Z,8.70
2023-03-25T02:05:40.731Z,6.70
2023-03-25T02:06:40.723Z,8.10
2023-03-25T02:07:40.727Z,9.10
2023-03-25T02:08:40.704Z,9.10
2023-03-25T02:09:40.692Z,8.60
2023-03-25T02:10:40.680Z,9.70
2023-03-25T02:11:40.667Z,10.50
2023-03-25T02:12:40.685Z,8.50
2023-03-25T02:13:40.644Z,11.00
2023-03-25T02:14:40.636Z,8.50
2023-03-25T02:15:40.633Z,12.50
2023-03-25T02:16:40.681Z,9.70
2023-03-25T02:17:40.665Z,9.40
2023-03-25T02:18:40.600Z,11.90
2023-03-25T02:19:40.597Z,10.00
2023-03-25T02:20:40.584Z,10.60
2023-03-25T02:21:40.544Z,9.10
2023-03-25T02:22:40.563Z,11.80
2023-03-25T02:23:40.533Z,9.20
2023-03-25T02:24:40.516Z,8.70
2023-03-25T02:25:40.508Z,10.70
2023-03-25T02:26:40.520Z,9.30
2023-03-25T02:27:40.502Z,8.00
2023-03-25T02:28:40.475Z,8.10
2023-03-25T02:29:40.457Z,8.30
2023-03-25T02:30:40.448Z,10.90
2023-03-25T02:31:40.444Z,10.20
2023-03-25T02:32:40.483Z,9.20
2023-03-25T02:33:40.416Z,9.80
2023-03-25T02:34:40.415Z,7.90
2023-03-25T02:35:40.433Z,7.20
2023-03-25T02:36:40.402Z,8.00
2023-03-25T02:37:40.399Z,10.50
2023-03-25T02:38:40.372Z,11.20
2023-03-25T02:39:40.349Z,11.10
2023-03-25T02:40:40.367Z,6.50
2023-03-25T02:41:40.318Z,9.40
2023-03-25T02:42:40.352Z,9.30
2023-03-25T02:43:40.315Z,10.00
2023-03-25T02:44:40.298Z,9.50
2023-03-25T02:45:40.289Z,8.10
2023-03-25T02:46:40.274Z,10.10
2023-03-25T02:47:40.302Z,9.30
2023-03-25T02:48:40.248Z,8.00
2023-03-25T02:49:40.242Z,7.80
2023-03-25T02:50:40.225Z,9.10
2023-03-25T02:51:40.207Z,8.00
2023-03-25T02:52:40.236Z,8.90
2023-03-25T02:53:40.219Z,7.90
2023-03-25T02:54:40.192Z,11.00
2023-03-25T02:55:40.169Z,9.10
2023-03-25T02:56:40.234Z,9.60
2023-03-25T02:57:40.164Z,8.20
2023-03-25T02:58:40.173Z,8.70
2023-03-25T02:59:40.138Z,10.00
2023-03-25T03:00:40.119Z,9.20
2023-03-25T03:01:40.144Z,8.30
2023-03-25T03:02:40.241Z,8.10
2023-03-25T03:03:40.109Z,8.30
2023-03-25T03:04:40.081Z,9.10
2023-03-25T03:05:40.054Z,9.50
2023-03-25T03:06:40.051Z,7.50
2023-03-25T03:07:40.062Z,9.50
2023-03-25T03:08:40.030Z,7.50
2023-03-25T03:09:39.997Z,8.60
2023-03-25T03:10:39.989Z,7.50
2023-03-25T03:11:39.982Z,8.40
2023-03-25T03:12:39.989Z,7.30
2023-03-25T03:13:39.976Z,8.70
2023-03-25T03:14:39.940Z,8.60
2023-03-25T03:15:39.940Z,7.40
2023-03-25T03:16:39.974Z,7.40
2023-03-25T03:17:40.047Z,6.30
2023-03-25T03:18:39.939Z,8.70
2023-03-25T03:19:39.899Z,9.10
2023-03-25T03:20:39.899Z,10.90
2023-03-25T03:21:39.865Z,9.90
2023-03-25T03:22:39.886Z,11.30
2023-03-25T03:23:39.843Z,9.80
2023-03-25T03:24:39.839Z,8.60
2023-03-25T03:25:39.822Z,8.80
2023-03-25T03:26:39.810Z,11.60
2023-03-25T03:27:39.823Z,8.70
2023-03-25T03:28:39.794Z,9.20
2023-03-25T03:29:39.774Z,9.30
2023-03-25T03:30:39.764Z,9.50
2023-03-25T03:31:48.909Z,7.50
2023-03-25T03:32:39.806Z,7.80
2023-03-25T03:33:39.734Z,7.80
2023-03-25T03:34:39.739Z,11.00
2023-03-25T03:35:39.766Z,10.80
2023-03-25T03:36:39.693Z,9.80
2023-03-25T03:37:39.722Z,11.50
2023-03-25T03:38:39.668Z,11.60
2023-03-25T03:39:39.665Z,9.50
2023-03-25T03:40:39.656Z,10.30
2023-03-25T03:41:39.641Z,8.50
2023-03-25T03:42:39.659Z,11.20
2023-03-25T03:43:39.644Z,10.10
2023-03-25T03:44:39.609Z,11.20
2023-03-25T03:45:39.602Z,11.00
2023-03-25T03:46:39.628Z,8.80
2023-03-25T03:47:39.656Z,7.70
2023-03-25T03:48:39.567Z,9.40
2023-03-25T03:49:39.565Z,9.40
2023-03-25T03:50:39.535Z,11.40
2023-03-25T03:51:39.531Z,9.40
2023-03-25T03:52:39.539Z,7.60
2023-03-25T03:53:39.511Z,9.40
2023-03-25T03:54:39.483Z,9.10
2023-03-25T03:55:39.483Z,10.20
2023-03-25T03:56:39.483Z,6.80
2023-03-25T03:57:39.481Z,4.80
2023-03-25T03:58:39.446Z,6.30
2023-03-25T03:59:39.530Z,8.00
2023-03-25T04:00:39.427Z,7.40
2023-03-25T04:01:39.452Z,8.00
2023-03-25T04:02:39.450Z,8.50
2023-03-25T04:03:39.411Z,6.10
2023-03-25T04:04:39.394Z,6.10
2023-03-25T04:05:39.367Z,5.40
2023-03-25T04:06:39.351Z,7.70
2023-03-25T04:07:39.362Z,5.60
2023-03-25T04:08:39.336Z,7.10
2023-03-25T04:09:39.319Z,7.30
2023-03-25T04:10:39.325Z,6.10
2023-03-25T04:11:39.307Z,9.10
2023-03-25T04:12:39.323Z,6.80
2023-03-25T04:13:39.276Z,5.10
2023-03-25T04:14:39.258Z,5.50
2023-03-25T04:15:39.263Z,6.60
2023-03-25T04:16:39.314Z,5.80
2023-03-25T04:17:39.313Z,7.00
2023-03-25T04:18:39.227Z,7.50
2023-03-25T04:19:39.211Z,7.30
2023-03-25T04:20:39.203Z,7.00
2023-03-25T04:21:39.192Z,5.70
2023-03-25T04:22:39.205Z,7.00
2023-03-25T04:23:39.162Z,7.80
2023-03-25T04:24:39.160Z,5.40
2023-03-25T04:25:39.149Z,5.80
2023-03-25T04:26:39.148Z,8.50
2023-03-25T04:27:39.140Z,6.00
2023-03-25T04:28:39.107Z,7.90
2023-03-25T04:29:39.097Z,5.20
2023-03-25T04:30:39.084Z,7.40
2023-03-25T04:31:39.144Z,7.90
2023-03-25T04:32:39.117Z,5.00
2023-03-25T04:33:39.055Z,6.00
2023-03-25T04:34:39.030Z,6.50
2023-03-25T04:35:39.033Z,7.90
2023-03-25T04:36:39.010Z,7.10
2023-03-25T04:37:39.053Z,5.80
2023-03-25T04:38:38.986Z,7.70
2023-03-25T04:39:38.990Z,5.20
2023-03-25T04:40:38.975Z,6.20
2023-03-25T04:41:38.973Z,7.00
2023-03-25T04:42:38.956Z,6.70
2023-03-25T04:43:38.944Z,6.90
2023-03-25T04:44:38.965Z,8.20
2023-03-25T04:45:38.944Z,8.00
2023-03-25T04:46:38.906Z,7.60
2023-03-25T04:47:38.947Z,6.30
2023-03-25T04:48:38.872Z,5.80
2023-03-25T04:49:38.866Z,11.60
2023-03-25T04:50:38.868Z,7.90
2023-03-25T04:51:38.847Z,6.70
2023-03-25T04:52:38.861Z,7.80
2023-03-25T04:53:38.834Z,7.70
2023-03-25T04:54:38.805Z,7.70
2023-03-25T04:55:38.796Z,6.40
2023-03-25T04:56:38.834Z,7.10
2023-03-25T04:57:38.795Z,9.00
2023-03-25T04:58:38.758Z,5.20
2023-03-25T04:59:38.796Z,6.10
2023-03-25T05:00:38.736Z,6.50
2023-03-25T05:01:38.770Z,7.20
2023-03-25T05:02:38.838Z,6.30
2023-03-25T05:03:38.705Z,7.80
2023-03-25T05:04:38.706Z,7.40
2023-03-25T05:05:38.691Z,8.00
2023-03-25T05:06:38.708Z,6.80
2023-03-25T05:07:38.685Z,6.40
2023-03-25T05:08:38.648Z,6.90
2023-03-25T05:09:38.645Z,9.00
2023-03-25T05:10:38.633Z,6.50
2023-03-25T05:11:38.614Z,6.90
2023-03-25T05:12:38.616Z,8.90
2023-03-25T05:13:38.595Z,7.10
2023-03-25T05:14:38.676Z,7.30
2023-03-25T05:15:38.561Z,9.60
2023-03-25T05:16:38.568Z,7.40
2023-03-25T05:17:38.605Z,8.40
2023-03-25T05:18:38.536Z,7.60
2023-03-25T05:19:38.523Z,8.10
2023-03-25T05:20:38.509Z,5.10
2023-03-25T05:21:38.505Z,6.30
2023-03-25T05:22:38.508Z,8.20
2023-03-25T05:23:38.477Z,6.40
2023-03-25T05:24:38.457Z,7.30
2023-03-25T05:25:38.462Z,6.50
2023-03-25T05:26:38.447Z,6.20
2023-03-25T05:27:38.447Z,8.10
2023-03-25T05:28:38.412Z,6.30
2023-03-25T05:29:38.420Z,9.60
2023-03-25T05:30:38.398Z,6.40
2023-03-25T05:31:38.454Z,7.20
2023-03-25T05:32:38.457Z,7.30
2023-03-25T05:33:38.382Z,7.00
2023-03-25T05:34:38.344Z,8.20
2023-03-25T05:35:38.406Z,6.80
2023-03-25T05:36:38.322Z,8.10
2023-03-25T05:37:38.340Z,7.60
2023-03-25T05:38:38.301Z,6.50
2023-03-25T05:39:38.289Z,7.80
2023-03-25T05:40:38.277Z,6.30
2023-03-25T05:41:38.284Z,6.00
2023-03-25T05:42:38.276Z,7.10
2023-03-25T05:43:38.247Z,9.90
2023-03-25T05:44:38.227Z,10.30
2023-03-25T05:45:38.286Z,9.60
2023-03-25T05:46:38.229Z,10.40
2023-03-25T05:47:38.252Z,8.00
2023-03-25T05:48:38.181Z,9.30
2023-03-25T05:49:38.187Z,9.00
2023-03-25T05:50:38.201Z,9.30
2023-03-25T05:51:38.167Z,9.20
2023-03-25T05:52:38.167Z,10.50
2023-03-25T05:53:38.131Z,8.90
2023-03-25T05:54:38.126Z,7.80
2023-03-25T05:55:38.747Z,6.90
2023-03-25T05:56:38.150Z,8.30
2023-03-25T05:57:38.106Z,10.80
2023-03-25T05:58:38.073Z,8.50
2023-03-25T05:59:38.070Z,6.90
2023-03-25T06:00:38.057Z,6.90
2023-03-25T06:01:38.060Z,7.50
2023-03-25T06:02:38.126Z,9.40
2023-03-25T06:03:38.166Z,9.20
2023-03-25T06:04:38.067Z,9.30
2023-03-25T06:05:37.996Z,11.60
2023-03-25T06:06:38.008Z,9.80
2023-03-25T06:07:38.066Z,7.60
2023-03-25T06:08:37.971Z,7.00
2023-03-25T06:09:37.962Z,7.40
2023-03-25T06:10:37.968Z,9.80
2023-03-25T06:11:38.517Z,7.60
2023-03-25T06:12:37.933Z,9.20
2023-03-25T06:13:37.931Z,9.20
2023-03-25T06:14:37.895Z,12.20
2023-03-25T06:15:37.906Z,8.70
2023-03-25T06:16:37.873Z,11.20
2023-03-25T06:17:37.935Z,7.60
2023-03-25T06:18:37.884Z,10.90
2023-03-25T06:19:37.876Z,7.40
2023-03-25T06:20:37.831Z,10.20
2023-03-25T06:21:37.861Z,8.00
2023-03-25T06:22:37.825Z,9.90
2023-03-25T06:23:37.878Z,10.90
2023-03-25T06:24:37.825Z,5.80
2023-03-25T06:25:37.782Z,9.10
2023-03-25T06:26:37.768Z,10.00
2023-03-25T06:27:37.770Z,7.80
2023-03-25T06:28:37.737Z,8.30
2023-03-25T06:29:37.724Z,8.50
2023-03-25T06:30:37.713Z,8.30
2023-03-25T06:31:37.789Z,6.60
2023-03-25T06:32:37.757Z,9.00
2023-03-25T06:33:43.028Z,8.90
2023-03-25T06:34:37.676Z,8.80
2023-03-25T06:35:37.756Z,11.10
2023-03-25T06:36:37.646Z,8.50
2023-03-25T06:37:37.695Z,9.70
2023-03-25T06:38:37.618Z,9.10
2023-03-25T06:39:37.621Z,8.90
2023-03-25T06:40:37.610Z,8.60
2023-03-25T06:41:37.592Z,7.90
2023-03-25T06:42:37.593Z,8.80
2023-03-25T06:43:37.572Z,10.30
2023-03-25T06:44:37.555Z,9.60
2023-03-25T06:45:37.546Z,10.00
2023-03-25T06:46:37.661Z,9.90
2023-03-25T06:47:37.704Z,7.70
2023-03-25T06:48:37.562Z,8.90
2023-03-25T06:49:37.509Z,8.40
2023-03-25T06:50:37.489Z,7.70
2023-03-25T06:51:37.534Z,8.10
2023-03-25T06:52:37.500Z,9.60
2023-03-25T06:53:37.485Z,6.70
2023-03-25T06:54:37.438Z,7.80
2023-03-25T06:55:37.534Z,7.10
2023-03-25T06:56:37.534Z,7.00
2023-03-25T06:57:37.476Z,7.30
2023-03-25T06:58:37.482Z,8.30
2023-03-25T06:59:37.388Z,9.00
2023-03-25T07:00:37.370Z,9.80
2023-03-25T07:01:37.407Z,6.90
2023-03-25T07:02:37.410Z,9.30
2023-03-25T07:03:37.420Z,7.10
2023-03-25T07:04:37.356Z,8.10
2023-03-25T07:05:37.367Z,8.90
2023-03-25T07:06:37.385Z,8.40
2023-03-25T07:07:38.101Z,11.10
2023-03-25T07:08:37.388Z,7.10
2023-03-25T07:09:37.347Z,9.50
2023-03-25T07:10:37.292Z,8.20
2023-03-25T07:11:37.270Z,6.60
2023-03-25T07:12:37.255Z,7.70
2023-03-25T07:13:37.230Z,10.60
2023-03-25T07:14:37.233Z,8.80
2023-03-25T07:15:37.281Z,7.80
2023-03-25T07:16:37.233Z,6.40
2023-03-25T07:17:37.276Z,9.40
2023-03-25T07:18:37.176Z,9.10
2023-03-25T07:19:37.229Z,8.00
2023-03-25T07:20:37.181Z,7.90
2023-03-25T07:21:37.143Z,8.30
2023-03-25T07:22:37.190Z,10.00
2023-03-25T07:23:37.139Z,7.80
2023-03-25T07:24:37.105Z,6.50
2023-03-25T07:25:37.166Z,7.40
2023-03-25T07:26:37.089Z,7.40
2023-03-25T07:27:37.091Z,10.20
2023-03-25T07:28:37.069Z,8.90
2023-03-25T07:29:37.048Z,7.10
2023-03-25T07:30:37.039Z,9.50
2023-03-25T07:31:37.161Z,7.50
2023-03-25T07:32:37.151Z,7.20
2023-03-25T07:33:37.088Z,8.20
2023-03-25T07:34:36.993Z,6.60
2023-03-25T07:35:37.100Z,12.00
2023-03-25T07:36:36.970Z,9.20
2023-03-25T07:37:37.017Z,10.10
2023-03-25T07:38:36.977Z,11.70
2023-03-25T07:39:36.937Z,7.90
2023-03-25T07:40:36.939Z,6.10
2023-03-25T07:41:36.931Z,7.50
2023-03-25T07:42:36.989Z,10.10
2023-03-25T07:43:36.956Z,8.90
2023-03-25T07:44:36.907Z,9.00
2023-03-25T07:45:44.665Z,10.20
2023-03-25T07:46:37.013Z,6.50
2023-03-25T07:47:37.022Z,9.30
2023-03-25T07:48:36.843Z,7.50
2023-03-25T07:49:36.838Z,8.90
2023-03-25T07:50:36.815Z,10.10
2023-03-25T07:51:36.826Z,7.40
2023-03-25T07:52:36.812Z,6.80
2023-03-25T07:53:36.788Z,7.10
2023-03-25T07:54:36.768Z,8.00
2023-03-25T07:55:36.748Z,8.90
2023-03-25T07:56:36.849Z,10.80
2023-03-25T07:57:36.784Z,8.20
2023-03-25T07:58:36.726Z,8.10
2023-03-25T07:59:36.708Z,9.40
2023-03-25T08:00:36.710Z,8.10
2023-03-25T08:01:36.783Z,10.00
2023-03-25T08:02:36.921Z,9.50
2023-03-25T08:03:36.746Z,7.20
2023-03-25T08:04:36.723Z,9.60
2023-03-25T08:05:36.668Z,8.30
2023-03-25T08:06:36.635Z,8.80
2023-03-25T08:07:36.638Z,8.80
2023-03-25T08:08:36.607Z,8.40
2023-03-25T08:09:36.641Z,9.30
2023-03-25T08:10:36.604Z,10.20
2023-03-25T08:11:36.565Z,8.80
2023-03-25T08:12:36.616Z,11.10
2023-03-25T08:13:36.581Z,8.70
2023-03-25T08:14:36.535Z,7.70
2023-03-25T08:15:36.546Z,9.20
2023-03-25T08:16:36.578Z,10.50
2023-03-25T08:17:36.535Z,9.80
2023-03-25T08:18:36.501Z,11.50
2023-03-25T08:19:36.489Z,9.10
2023-03-25T08:20:36.463Z,10.10
2023-03-25T08:21:36.456Z,9.60
2023-03-25T08:22:36.467Z,10.60
2023-03-25T08:23:36.435Z,11.80
2023-03-25T08:24:36.419Z,9.70
2023-03-25T08:25:36.408Z,8.20
2023-03-25T08:26:36.397Z,11.10
2023-03-25T08:27:36.397Z,9.10
2023-03-25T08:28:36.372Z,10.50
2023-03-25T08:29:36.366Z,10.90
2023-03-25T08:30:36.350Z,9.40
2023-03-25T08:31:36.361Z,10.80
2023-03-25T08:32:36.494Z,8.90
2023-03-25T08:33:36.314Z,11.50
2023-03-25T08:34:36.306Z,12.50
2023-03-25T08:35:36.307Z,10.60
2023-03-25T08:36:36.298Z,12.10
2023-03-25T08:37:36.292Z,10.70
2023-03-25T08:38:36.266Z,9.00
2023-03-25T08:39:36.256Z,11.00
2023-03-25T08:40:36.248Z,9.50
2023-03-25T08:41:36.220Z,8.70
2023-03-25T08:42:36.247Z,10.30
2023-03-25T08:43:36.204Z,9.70
2023-03-25T08:44:36.191Z,9.30
2023-03-25T08:45:36.178Z,12.60
2023-03-25T08:46:36.187Z,10.20
2023-03-25T08:47:36.220Z,10.70
2023-03-25T08:48:36.144Z,9.80
2023-03-25T08:49:36.140Z,9.70
2023-03-25T08:50:36.135Z,11.80
2023-03-25T08:51:36.105Z,12.00
2023-03-25T08:52:36.126Z,13.70
2023-03-25T08:53:36.086Z,9.70
2023-03-25T08:54:36.086Z,10.90
2023-03-25T08:55:36.063Z,12.30
2023-03-25T08:56:36.108Z,10.80
2023-03-25T08:57:36.060Z,11.90
2023-03-25T08:58:36.056Z,9.80
2023-03-25T08:59:36.036Z,11.90
2023-03-25T09:00:36.011Z,11.90
2023-03-25T09:01:36.026Z,13.20
2023-03-25T09:02:36.031Z,10.00
2023-03-25T09:03:35.970Z,12.10
2023-03-25T09:04:35.974Z,8.60
2023-03-25T09:05:35.970Z,12.40
2023-03-25T09:06:48.229Z,9.10
2023-03-25T09:07:35.958Z,12.10
2023-03-25T09:08:35.936Z,11.90
2023-03-25T09:09:35.966Z,13.70
2023-03-25T09:10:37.640Z,10.80
2023-03-25T09:12:35.896Z,10.90
2023-03-25T09:13:35.895Z,11.60
2023-03-25T09:14:35.865Z,10.80
2023-03-25T09:15:35.871Z,10.00
2023-03-25T09:16:35.839Z,12.20
2023-03-25T09:17:35.864Z,11.30
2023-03-25T09:18:35.818Z,13.20
2023-03-25T09:19:35.792Z,13.40
2023-03-25T09:20:35.805Z,13.10
2023-03-25T09:21:35.782Z,13.50
2023-03-25T09:22:35.790Z,9.50
2023-03-25T09:23:35.754Z,13.50
2023-03-25T09:24:35.856Z,10.00
2023-03-25T09:25:35.743Z,11.90
2023-03-25T09:26:35.713Z,10.30
2023-03-25T09:27:35.717Z,9.00
2023-03-25T09:28:35.694Z,10.00
2023-03-25T09:29:35.708Z,12.40
2023-03-25T09:30:35.667Z,10.80
2023-03-25T09:31:35.680Z,10.60
2023-03-25T09:32:35.690Z,11.50
2023-03-25T09:33:35.634Z,12.20
2023-03-25T09:34:35.635Z,10.10
2023-03-25T09:35:35.675Z,10.70
2023-03-25T09:36:35.600Z,11.20
2023-03-25T09:37:35.609Z,10.60
2023-03-25T09:38:35.575Z,10.40
2023-03-25T09:39:35.558Z,9.10
2023-03-25T09:40:35.565Z,8.40
2023-03-25T09:41:35.542Z,10.70
2023-03-25T09:42:35.554Z,10.60
2023-03-25T09:43:35.518Z,9.30
2023-03-25T09:44:35.509Z,12.30
2023-03-25T09:45:35.502Z,12.70
2023-03-25T09:46:35.516Z,14.10
2023-03-25T09:47:35.523Z,14.40
2023-03-25T09:48:35.465Z,11.00
2023-03-25T09:49:35.444Z,11.00
2023-03-25T09:50:35.463Z,9.60
2023-03-25T09:51:35.425Z,13.80
2023-03-25T09:52:35.434Z,9.10
2023-03-25T09:53:35.427Z,14.50
2023-03-25T09:54:35.408Z,9.60
2023-03-25T09:55:35.388Z,15.60
2023-03-25T09:56:36.453Z,12.00
2023-03-25T09:57:35.389Z,14.10
2023-03-25T09:58:35.366Z,11.80
2023-03-25T09:59:35.338Z,12.00
2023-03-25T10:00:35.346Z,12.30
2023-03-25T10:01:35.446Z,13.70
2023-03-25T10:02:35.510Z,11.10
2023-03-25T10:03:35.294Z,13.20
2023-03-25T10:04:35.297Z,14.60
2023-03-25T10:05:35.273Z,10.90
2023-03-25T10:06:35.264Z,12.60
2023-03-25T10:07:35.271Z,11.00
2023-03-25T10:08:35.250Z,13.10
2023-03-25T10:09:35.225Z,13.10
2023-03-25T10:10:35.232Z,10.40
2023-03-25T10:11:35.236Z,11.30
2023-03-25T10:12:35.217Z,9.70
2023-03-25T10:13:35.200Z,11.50
2023-03-25T10:14:35.169Z,11.90
2023-03-25T10:15:35.167Z,11.30
2023-03-25T10:16:35.171Z,9.30
2023-03-25T10:17:35.201Z,14.40
2023-03-25T10:18:35.127Z,9.40
2023-03-25T10:19:35.141Z,10.50
2023-03-25T10:20:35.106Z,11.70
2023-03-25T10:21:35.089Z,14.00
2023-03-25T10:22:35.108Z,9.90
2023-03-25T10:23:35.070Z,12.50
2023-03-25T10:24:35.058Z,11.20
2023-03-25T10:25:35.045Z,10.50
2023-03-25T10:26:35.038Z,10.00
2023-03-25T10:27:35.049Z,11.60
2023-03-25T10:28:35.017Z,9.60
2023-03-25T10:29:34.997Z,13.20
2023-03-25T10:30:34.999Z,11.50
2023-03-25T10:31:35.020Z,9.80
2023-03-25T10:32:35.020Z,8.60
2023-03-25T10:33:34.955Z,6.70
2023-03-25T10:34:35.092Z,11.00
2023-03-25T10:35:34.982Z,10.40
2023-03-25T10:36:34.950Z,11.90
2023-03-25T10:37:34.936Z,10.30
2023-03-25T10:38:34.902Z,8.60
2023-03-25T10:39:34.888Z,9.70
2023-03-25T10:40:34.883Z,9.20
2023-03-25T10:41:34.868Z,8.20
2023-03-25T10:42:34.889Z,9.80
2023-03-25T10:43:34.859Z,8.00
2023-03-25T10:44:34.839Z,6.40
2023-03-25T10:45:34.857Z,7.90
2023-03-25T10:46:34.817Z,12.50
2023-03-25T10:47:34.884Z,8.90
2023-03-25T10:48:34.819Z,9.60
2023-03-25T10:49:34.773Z,9.30
2023-03-25T10:50:34.774Z,7.20
2023-03-25T10:51:34.756Z,8.90
2023-03-25T10:52:34.744Z,8.10
2023-03-25T10:53:34.773Z,7.90
2023-03-25T10:54:34.718Z,9.30
2023-03-25T10:55:34.707Z,9.00
2023-03-25T10:56:34.750Z,6.50
2023-03-25T10:57:34.683Z,11.10
2023-03-25T10:58:34.672Z,8.80
2023-03-25T10:59:34.695Z,9.20
2023-03-25T11:00:34.663Z,10.50
2023-03-25T11:01:34.686Z,10.10
2023-03-25T11:02:34.805Z,12.20
2023-03-25T11:03:34.665Z,10.80
2023-03-25T11:04:34.624Z,8.60
2023-03-25T11:05:34.587Z,9.30
2023-03-25T11:06:34.589Z,9.60
2023-03-25T11:07:34.565Z,9.80
2023-03-25T11:08:34.562Z,11.20
2023-03-25T11:09:34.575Z,10.00
2023-03-25T11:10:34.535Z,8.90
2023-03-25T11:11:34.536Z,11.30
2023-03-25T11:12:42.864Z,10.40
2023-03-25T11:13:34.504Z,10.00
2023-03-25T11:14:34.514Z,12.80
2023-03-25T11:15:34.579Z,10.90
2023-03-25T11:16:34.507Z,11.70
2023-03-25T11:17:34.478Z,10.40
2023-03-25T11:18:34.443Z,11.00
2023-03-25T11:19:34.451Z,9.50
2023-03-25T11:20:34.420Z,8.70
2023-03-25T11:21:34.458Z,11.80
2023-03-25T11:22:34.403Z,13.30
2023-03-25T11:23:34.396Z,12.50
2023-03-25T11:24:34.395Z,10.30
2023-03-25T11:25:34.364Z,8.40
2023-03-25T11:26:34.356Z,14.50
2023-03-25T11:27:34.330Z,11.00
2023-03-25T11:28:34.349Z,9.80
2023-03-25T11:29:34.307Z,14.40
2023-03-25T11:30:34.305Z,12.30
2023-03-25T11:31:34.289Z,10.00
2023-03-25T11:32:34.372Z,9.90
2023-03-25T11:33:34.281Z,15.50
2023-03-25T11:34:34.272Z,12.60
2023-03-25T11:35:34.236Z,10.00
2023-03-25T11:36:34.232Z,12.20
2023-03-25T11:37:34.222Z,11.80
2023-03-25T11:38:34.228Z,11.70
2023-03-25T11:39:34.209Z,9.50
2023-03-25T11:40:34.179Z,11.80
2023-03-25T11:41:34.172Z,12.20
2023-03-25T11:42:34.175Z,10.10
2023-03-25T11:43:34.189Z,11.20
2023-03-25T11:44:34.145Z,11.30
2023-03-25T11:45:35.626Z,10.50
2023-03-25T11:46:34.180Z,13.00
2023-03-25T11:47:34.184Z,13.10
2023-03-25T11:48:34.111Z,12.00
2023-03-25T11:49:34.082Z,14.50
2023-03-25T11:50:34.089Z,10.90
2023-03-25T11:51:34.067Z,9.90
2023-03-25T11:52:34.046Z,8.00
2023-03-25T11:53:34.066Z,11.30
2023-03-25T11:54:34.023Z,9.70
2023-03-25T11:55:34.029Z,6.60
2023-03-25T11:56:34.029Z,11.00
2023-03-25T11:57:33.994Z,6.90
2023-03-25T11:58:34.051Z,5.60
2023-03-25T11:59:33.976Z,6.00
2023-03-25T12:00:33.965Z,5.50
2023-03-25T12:01:33.949Z,5.40
2023-03-25T12:02:33.974Z,5.30
2023-03-25T12:03:33.984Z,4.60
2023-03-25T12:04:33.911Z,4.20
2023-03-25T12:05:33.903Z,6.10
2023-03-25T12:06:33.911Z,5.00
2023-03-25T12:07:33.876Z,4.70
2023-03-25T12:08:33.884Z,6.30
2023-03-25T12:09:33.886Z,5.20
2023-03-25T12:10:33.845Z,5.00
2023-03-25T12:11:33.844Z,6.00
2023-03-25T12:12:33.861Z,5.70
2023-03-25T12:13:33.833Z,6.90
2023-03-25T12:14:33.803Z,7.30
2023-03-25T12:15:33.807Z,8.30
2023-03-25T12:16:33.824Z,8.00
2023-03-25T12:17:33.790Z,7.30
2023-03-25T12:18:33.767Z,8.20
2023-03-25T12:19:33.748Z,6.50
2023-03-25T12:20:33.738Z,6.40
2023-03-25T12:21:33.727Z,6.80
2023-03-25T12:22:33.716Z,8.20
2023-03-25T12:23:33.732Z,7.10
2023-03-25T12:24:33.695Z,9.50
2023-03-25T12:25:33.680Z,8.70
2023-03-25T12:26:33.669Z,9.70
2023-03-25T12:27:33.655Z,8.50
2023-03-25T12:28:33.664Z,8.00
2023-03-25T12:29:33.663Z,8.20
2023-03-25T12:30:33.621Z,9.20
2023-03-25T12:31:33.661Z,7.10
2023-03-25T12:32:33.626Z,10.90
2023-03-25T12:33:33.642Z,8.60
2023-03-25T12:34:33.574Z,6.30
2023-03-25T12:35:33.627Z,7.40
2023-03-25T12:36:33.556Z,8.30
2023-03-25T12:37:33.555Z,8.70
2023-03-25T12:38:33.569Z,7.60
2023-03-25T12:39:42.820Z,7.00
2023-03-25T12:40:33.546Z,8.10
2023-03-25T12:41:33.513Z,8.30
2023-03-25T12:42:33.482Z,8.60
2023-03-25T12:43:33.513Z,8.50
2023-03-25T12:44:33.476Z,7.40
2023-03-25T12:45:33.482Z,8.10
2023-03-25T12:46:33.443Z,9.10
2023-03-25T12:47:33.455Z,7.40
2023-03-25T12:48:33.442Z,8.10
2023-03-25T12:49:33.413Z,10.10
2023-03-25T12:50:35.384Z,10.10
2023-03-25T12:51:33.404Z,10.20
2023-03-25T12:52:33.406Z,9.40
2023-03-25T12:53:33.443Z,10.10
2023-03-25T12:54:33.383Z,8.60
2023-03-25T12:55:33.348Z,7.50
2023-03-25T12:56:33.426Z,8.60
2023-03-25T12:57:33.379Z,7.80
2023-03-25T12:58:33.536Z,8.30
2023-03-25T12:59:33.346Z,9.50
2023-03-25T13:00:33.295Z,10.80
2023-03-25T13:01:33.333Z,9.90
2023-03-25T13:02:33.522Z,10.50
2023-03-25T13:03:33.296Z,11.10
2023-03-25T13:04:33.260Z,9.40
2023-03-25T13:05:33.273Z,8.50
2023-03-25T13:06:33.392Z,7.80
2023-03-25T13:07:34.605Z,9.20
2023-03-25T13:08:33.231Z,7.50
2023-03-25T13:09:33.215Z,10.20
2023-03-25T13:10:33.206Z,7.10
2023-03-25T13:11:33.202Z,8.10